Time;durP1;ratioP1;P1;durP2;ratioP2;P2;SDS_P1;SDS_P2;PMS_P1;PMS_P2;Temp;Humidity;BMP_temperature;BMP_pressure;BME280_temperature;BME280_humidity;BME280_pressure;Samples;Min_cycle;Max_cycle;Signal;HPM_P1;HPM_P2
2022/01/15 00:02:04;;;;;;;35.9;16;;;;;;;-0.12;93.99219;949.7592;;;;
2022/01/15 00:04:37;;;;;;;29.8;13.2;;;;;;;0.08;93.21191;949.8169;;;;
2022/01/15 00:07:02;;;;;;;26;12.3;;;;;;;0.19;92.16406;949.7156;;;;
2022/01/15 00:09:30;;;;;;;13.2;7.6;;;;;;;0.27;91.33398;949.7567;;;;
2022/01/15 00:11:55;;;;;;;12;7.3;;;;;;;0.06;91.56836;949.7197;;;;
2022/01/15 00:14:35;;;;;;;9;5.8;;;;;;;-0.05;92.4043;949.7399;;;;
2022/01/15 00:17:05;;;;;;;8.3;5.3;;;;;;;-0.04;93.0498;949.7233;;;;
2022/01/15 00:19:35;;;;;;;8.3;5.6;;;;;;;-0.03;93.1748;949.7148;;;;
2022/01/15 00:21:49;;;;;;;9.7;6.2;;;;;;;-0.04;93.19531;949.7001;;;;
2022/01/15 00:24:16;;;;;;;11.1;6.8;;;;;;;-0.01;92.37695;949.6958;;;;
2022/01/15 00:26:41;;;;;;;17.7;8.5;;;;;;;-0.15;92.63672;949.6484;;;;
2022/01/15 00:29:08;;;;;;;19.6;9.2;;;;;;;-0.24;94.15332;949.6503;;;;
2022/01/15 00:31:34;;;;;;;11.1;6.3;;;;;;;-0.18;94.19824;949.5991;;;;
2022/01/15 00:33:58;;;;;;;14;7.2;;;;;;;-0.14;94.62012;949.558;;;;
2022/01/15 00:36:26;;;;;;;11.9;6.4;;;;;;;-0.11;94.22559;949.498;;;;
2022/01/15 00:38:51;;;;;;;11.9;6.9;;;;;;;-0.06;93.95898;949.4683;;;;
2022/01/15 00:41:18;;;;;;;10;6.1;;;;;;;-0.11;94.10352;949.479;;;;
2022/01/15 00:43:43;;;;;;;10.8;6.5;;;;;;;-0.2;94.49512;949.4345;;;;
2022/01/15 00:46:11;;;;;;;14.3;7.4;;;;;;;-0.31;94.62695;949.3438;;;;
2022/01/15 00:48:37;;;;;;;12;7.3;;;;;;;-0.38;95.23535;949.3791;;;;
2022/01/15 00:51:02;;;;;;;11.7;6.3;;;;;;;-0.26;95.03711;949.3522;;;;
2022/01/15 00:53:30;;;;;;;16.3;8.7;;;;;;;-0.07;93.82324;949.3549;;;;
2022/01/15 00:55:55;;;;;;;9;5.6;;;;;;;-0.08;93.58594;949.3546;;;;
2022/01/15 00:58:20;;;;;;;8.9;5.9;;;;;;;-0.12;93.6582;949.3546;;;;
2022/01/15 01:00:45;;;;;;;7.5;5;;;;;;;-0.05;93.36035;949.2447;;;;
2022/01/15 01:03:13;;;;;;;7.5;5;;;;;;;-0.14;93.68555;949.3038;;;;
2022/01/15 01:05:38;;;;;;;9.1;5.1;;;;;;;-0.04;93.10547;949.2266;;;;
2022/01/15 01:08:03;;;;;;;6.5;4.8;;;;;;;-0.07;93.44531;949.2841;;;;
2022/01/15 01:11:32;;;;;;;4.2;3.2;;;;;;;-0.06;94.68164;949.2143;;;;
2022/01/15 01:13:16;;;;;;;8;4;;;;;;;0.06;93.72949;949.2083;;;;
2022/01/15 01:20:23;;;;;;;8.2;4.6;;;;;;;0.17;92.80566;949.178;;;;
2022/01/15 01:22:57;;;;;;;7.3;4.3;;;;;;;0.28;91.67285;949.2252;;;;
2022/01/15 01:25:05;;;;;;;8.7;4.6;;;;;;;0.34;91.12695;949.1119;;;;
2022/01/15 01:27:43;;;;;;;5.4;3.8;;;;;;;0.21;91.37598;949.144;;;;
2022/01/15 01:30:10;;;;;;;7.2;4.1;;;;;;;0.04;92.37695;949.0773;;;;
2022/01/15 01:32:39;;;;;;;7.5;4.3;;;;;;;-0.04;92.6377;949.0535;;;;
2022/01/15 01:34:46;;;;;;;10.6;5.8;;;;;;;-0.13;93.62988;949.1163;;;;
2022/01/15 01:37:17;;;;;;;8.8;5;;;;;;;-0.24;93.98633;949.0528;;;;
2022/01/15 01:39:44;;;;;;;7.1;4.2;;;;;;;-0.25;95.28613;948.9573;;;;
2022/01/15 01:42:11;;;;;;;6;3.8;;;;;;;-0.23;95.08984;949.0453;;;;
2022/01/15 01:44:29;;;;;;;6.8;3.2;;;;;;;-0.29;95.68848;949.0031;;;;
2022/01/15 01:47:03;;;;;;;8.3;3.8;;;;;;;-0.19;95.1543;949.0117;;;;
2022/01/15 01:49:19;;;;;;;5.8;3.6;;;;;;;-0.26;94.87012;948.9995;;;;
2022/01/15 01:51:45;;;;;;;7.9;4.6;;;;;;;-0.13;94.03027;948.9409;;;;
2022/01/15 01:54:10;;;;;;;6.7;3.8;;;;;;;-0.22;94.22559;948.9249;;;;
2022/01/15 01:56:35;;;;;;;8.8;4.9;;;;;;;-0.36;94.43848;948.8224;;;;
2022/01/15 01:59:01;;;;;;;9.9;4.3;;;;;;;-0.4;94.91992;948.7315;;;;
2022/01/15 02:01:27;;;;;;;7.1;3.8;;;;;;;-0.44;95.56641;948.7009;;;;
2022/01/15 02:03:54;;;;;;;6.6;4.1;;;;;;;-0.38;95.11133;948.6909;;;;
2022/01/15 02:06:19;;;;;;;7.5;4.2;;;;;;;-0.35;94.28418;948.5737;;;;
2022/01/15 02:08:44;;;;;;;5.2;3.5;;;;;;;-0.36;94.33789;948.6387;;;;
2022/01/15 02:11:11;;;;;;;5.8;3.5;;;;;;;-0.31;94.25;948.6061;;;;
2022/01/15 02:13:36;;;;;;;3.2;2.6;;;;;;;-0.35;94.04004;948.5408;;;;
2022/01/15 02:16:09;;;;;;;7;3.7;;;;;;;-0.34;93.80566;948.548;;;;
2022/01/15 02:18:39;;;;;;;9.6;4.7;;;;;;;-0.42;93.93457;948.4863;;;;
2022/01/15 02:23:32;;;;;;;6.1;3.3;;;;;;;-0.41;94.01465;948.4562;;;;
2022/01/15 02:23:36;;;;;;;4.3;2.9;;;;;;;-0.37;94.36914;948.4202;;;;
2022/01/15 02:25:55;;;;;;;7.3;3.7;;;;;;;-0.36;94.16016;948.4359;;;;
2022/01/15 02:28:23;;;;;;;7.6;4.1;;;;;;;-0.25;93.87305;948.3834;;;;
2022/01/15 02:30:48;;;;;;;6.4;3.2;;;;;;;-0.26;93.57031;948.3769;;;;
2022/01/15 02:33:13;;;;;;;7.5;4.1;;;;;;;-0.27;93.46582;948.3499;;;;
2022/01/15 02:35:40;;;;;;;4.6;3;;;;;;;-0.42;93.72266;948.3611;;;;
2022/01/15 02:38:04;;;;;;;3.6;2.3;;;;;;;-0.43;93.95508;948.3282;;;;
2022/01/15 02:40:32;;;;;;;2.8;2;;;;;;;-0.36;94.06934;948.3145;;;;
2022/01/15 02:42:56;;;;;;;4.4;3;;;;;;;-0.34;93.64063;948.3114;;;;
2022/01/15 02:45:26;;;;;;;8.7;4.1;;;;;;;-0.4;93.99609;948.3425;;;;
2022/01/15 02:48:03;;;;;;;5.7;3.7;;;;;;;-0.44;94.01758;948.2766;;;;
2022/01/15 02:50:15;;;;;;;6.6;3.5;;;;;;;-0.54;95.50879;948.2592;;;;
2022/01/15 02:52:40;;;;;;;10.7;5.6;;;;;;;-0.44;95.30859;948.2797;;;;
2022/01/15 02:55:05;;;;;;;9;5.5;;;;;;;-0.37;94.40332;948.2131;;;;
2022/01/15 02:57:30;;;;;;;12.5;6.2;;;;;;;-0.38;93.55469;948.1992;;;;
2022/01/15 02:59:55;;;;;;;8.9;4.8;;;;;;;-0.37;93.42188;948.1501;;;;
2022/01/15 03:02:25;;;;;;;5.7;3.7;;;;;;;-0.52;93.36719;948.095;;;;
2022/01/15 03:04:49;;;;;;;5.5;3.5;;;;;;;-0.49;93.67578;948.0736;;;;
2022/01/15 03:07:16;;;;;;;5.4;3.7;;;;;;;-0.53;93.75684;948.0693;;;;
2022/01/15 03:09:41;;;;;;;7.7;3.8;;;;;;;-0.47;93.59961;948.0642;;;;
2022/01/15 03:12:08;;;;;;;6.1;3.4;;;;;;;-0.52;94.10156;947.9936;;;;
2022/01/15 03:14:33;;;;;;;4.1;2.6;;;;;;;-0.45;94.54102;947.9695;;;;
2022/01/15 03:17:00;;;;;;;4.2;2.5;;;;;;;-0.48;94.79004;947.9709;;;;
2022/01/15 03:19:30;;;;;;;2.8;2.1;;;;;;;-0.55;95.27441;947.9935;;;;
2022/01/15 03:21:56;;;;;;;2.9;2.3;;;;;;;-0.56;94.77051;947.909;;;;
2022/01/15 03:24:26;;;;;;;2.7;2.1;;;;;;;-0.65;94.89648;947.9395;;;;
2022/01/15 03:26:56;;;;;;;3.4;2.5;;;;;;;-0.61;94.9043;947.9515;;;;
2022/01/15 03:29:22;;;;;;;2.5;2.2;;;;;;;-0.65;94.7959;947.9743;;;;
2022/01/15 03:31:53;;;;;;;4;3.1;;;;;;;-0.56;94.61621;947.9068;;;;
2022/01/15 03:34:21;;;;;;;4.9;3;;;;;;;-0.51;94.04785;947.9117;;;;
2022/01/15 03:36:46;;;;;;;3.6;2.4;;;;;;;-0.57;94.38965;947.9058;;;;
2022/01/15 03:39:13;;;;;;;3.3;2.1;;;;;;;-0.58;94.39844;947.8591;;;;
2022/01/15 03:41:39;;;;;;;2.4;2;;;;;;;-0.69;94.78613;947.8414;;;;
2022/01/15 03:44:06;;;;;;;3.2;2;;;;;;;-0.67;95.45703;947.8491;;;;
2022/01/15 03:46:32;;;;;;;2.4;1.9;;;;;;;-0.7;95.35156;947.8836;;;;
2022/01/15 03:49:00;;;;;;;2.5;2.1;;;;;;;-0.65;94.94043;947.7372;;;;
2022/01/15 03:51:25;;;;;;;3;2.2;;;;;;;-0.61;94.68164;947.793;;;;
2022/01/15 03:53:52;;;;;;;2;1.8;;;;;;;-0.71;95.28223;947.7628;;;;
2022/01/15 03:56:17;;;;;;;3.3;2.1;;;;;;;-0.63;95.38965;947.7614;;;;
2022/01/15 03:58:44;;;;;;;2.8;1.9;;;;;;;-0.49;94.54199;947.7103;;;;
2022/01/15 04:02:36;;;;;;;4.4;3.4;;;;;;;-0.65;94.68457;947.6939;;;;
2022/01/15 04:05:04;;;;;;;2.1;1.7;;;;;;;-0.69;95.02832;947.6183;;;;
2022/01/15 04:07:29;;;;;;;2.9;1.8;;;;;;;-0.69;95.17773;947.601;;;;
2022/01/15 04:09:57;;;;;;;3;2.1;;;;;;;-0.65;95.07422;947.5823;;;;
2022/01/15 04:12:22;;;;;;;4;2.8;;;;;;;-0.7;95.00684;947.5567;;;;
2022/01/15 04:14:52;;;;;;;3.8;2.4;;;;;;;-0.72;94.63574;947.5723;;;;
2022/01/15 04:17:17;;;;;;;2.6;2.1;;;;;;;-0.73;94.0752;947.6172;;;;
2022/01/15 04:19:48;;;;;;;2.2;1.8;;;;;;;-0.84;93.9082;947.6295;;;;
2022/01/15 04:22:17;;;;;;;2.8;1.8;;;;;;;-1.08;94.7207;947.5206;;;;
2022/01/15 04:24:42;;;;;;;2.3;1.9;;;;;;;-1.07;95.38965;947.4916;;;;
2022/01/15 04:27:07;;;;;;;3.3;2.1;;;;;;;-0.99;95.12793;947.5027;;;;
2022/01/15 04:29:34;;;;;;;4;2.5;;;;;;;-1.05;95.36035;947.4684;;;;
2022/01/15 04:31:58;;;;;;;3.8;2.4;;;;;;;-0.95;96.2168;947.3741;;;;
2022/01/15 04:34:25;;;;;;;2.9;2.1;;;;;;;-0.84;95.85254;947.4207;;;;
2022/01/15 04:36:51;;;;;;;2.5;1.7;;;;;;;-0.72;96.13477;947.3567;;;;
2022/01/15 04:39:18;;;;;;;3.6;2.4;;;;;;;-0.88;94.99902;947.3605;;;;
2022/01/15 04:41:43;;;;;;;4.2;2.6;;;;;;;-0.96;95.26074;947.4076;;;;
2022/01/15 04:44:10;;;;;;;7;3.4;;;;;;;-0.96;95.63867;947.3832;;;;
2022/01/15 04:46:35;;;;;;;11.4;5.6;;;;;;;-1.02;96.28906;947.3638;;;;
2022/01/15 04:49:01;;;;;;;10.3;5.4;;;;;;;-0.97;96.47754;947.3791;;;;
2022/01/15 04:51:26;;;;;;;10.7;5.5;;;;;;;-0.85;96.02832;947.3049;;;;
2022/01/15 04:53:52;;;;;;;10.5;5.3;;;;;;;-0.83;96.43262;947.2875;;;;
2022/01/15 04:56:19;;;;;;;11.2;5.6;;;;;;;-0.98;95.81055;947.3036;;;;
2022/01/15 04:58:44;;;;;;;8.8;5.7;;;;;;;-1.13;96.35254;947.3379;;;;
2022/01/15 05:01:18;;;;;;;10;6.6;;;;;;;-1.19;96.38477;947.2744;;;;
2022/01/15 05:03:51;;;;;;;8.5;5.8;;;;;;;-1.26;96.71289;947.3089;;;;
2022/01/15 05:06:16;;;;;;;7;5.3;;;;;;;-1.27;97.18848;947.3367;;;;
2022/01/15 05:08:46;;;;;;;10.6;6.7;;;;;;;-1.31;97.44434;947.2955;;;;
2022/01/15 05:11:21;;;;;;;11.7;7.7;;;;;;;-1.41;97.33203;947.358;;;;
2022/01/15 05:13:39;;;;;;;8.8;6;;;;;;;-1.43;98.2627;947.2913;;;;
2022/01/15 05:16:12;;;;;;;9.6;5.6;;;;;;;-1.4;98.34668;947.3116;;;;
2022/01/15 05:18:44;;;;;;;7.6;4.5;;;;;;;-1.33;98.11719;947.3242;;;;
2022/01/15 05:21:14;;;;;;;8.6;5;;;;;;;-1.21;97.18066;947.3233;;;;
2022/01/15 05:23:43;;;;;;;8.7;5.1;;;;;;;-1.14;95.7959;947.38;;;;
2022/01/15 05:26:12;;;;;;;10.2;6.1;;;;;;;-1.15;95.26953;947.3611;;;;
2022/01/15 05:28:42;;;;;;;14.1;7.1;;;;;;;-1.22;95.35645;947.3223;;;;
2022/01/15 05:31:10;;;;;;;14.6;9.2;;;;;;;-1.08;94.64355;947.3284;;;;
2022/01/15 05:33:35;;;;;;;16.6;9.7;;;;;;;-1.09;94.01855;947.3381;;;;
2022/01/15 05:36:06;;;;;;;19.5;10.7;;;;;;;-1.02;93.38867;947.3582;;;;
2022/01/15 05:38:35;;;;;;;21.8;11.3;;;;;;;-1.11;92.69238;947.3398;;;;
2022/01/15 05:41:00;;;;;;;20.7;10.1;;;;;;;-1.14;92.90918;947.3513;;;;
2022/01/15 05:43:29;;;;;;;20.1;13.1;;;;;;;-1.06;92.72461;947.3411;;;;
2022/01/15 05:45:54;;;;;;;35;25.6;;;;;;;-1.09;92.81934;947.375;;;;
2022/01/15 05:48:22;;;;;;;13.8;8.4;;;;;;;-1.11;92.7373;947.3611;;;;
2022/01/15 05:50:48;;;;;;;13.9;9.7;;;;;;;-1.09;92.69922;947.3728;;;;
2022/01/15 05:53:18;;;;;;;13.9;9.2;;;;;;;-1.12;92.7793;947.2614;;;;
2022/01/15 05:55:45;;;;;;;16.3;10.1;;;;;;;-1.07;92.74512;947.3685;;;;
2022/01/15 05:58:10;;;;;;;13.6;9.6;;;;;;;-1.07;92.77832;947.3702;;;;
2022/01/15 06:00:39;;;;;;;15.7;9.6;;;;;;;-1.07;92.48926;947.3135;;;;
2022/01/15 06:03:04;;;;;;;13.9;7.8;;;;;;;-1.21;93.12598;947.2555;;;;
2022/01/15 06:05:32;;;;;;;11.3;7.6;;;;;;;-1.19;92.80859;947.269;;;;
2022/01/15 06:07:57;;;;;;;16.2;8.3;;;;;;;-1.12;92.15527;947.2844;;;;
2022/01/15 06:10:26;;;;;;;14.1;8.5;;;;;;;-1.13;92.17773;947.3107;;;;
2022/01/15 06:12:51;;;;;;;13.8;7.8;;;;;;;-1.1;91.76172;947.3368;;;;
2022/01/15 06:15:20;;;;;;;15;8.7;;;;;;;-1.11;91.4707;947.3148;;;;
2022/01/15 06:17:50;;;;;;;18;9.6;;;;;;;-1.07;91.15625;947.356;;;;
2022/01/15 06:20:15;;;;;;;17.5;9.7;;;;;;;-1.04;91.42871;947.317;;;;
2022/01/15 06:22:45;;;;;;;23.8;11.4;;;;;;;-1.21;91.36035;947.4102;;;;
2022/01/15 06:25:10;;;;;;;25.8;12.5;;;;;;;-1.23;91.87598;947.3985;;;;
2022/01/15 06:27:35;;;;;;;25.1;11.9;;;;;;;-1.25;92.32813;947.3471;;;;
2022/01/15 06:30:04;;;;;;;24.4;12;;;;;;;-1.32;92.45801;947.3801;;;;
2022/01/15 06:32:35;;;;;;;21.4;10.6;;;;;;;-1.32;92.10254;947.3592;;;;
2022/01/15 06:34:54;;;;;;;12.1;7.5;;;;;;;-1.25;91.79492;947.3678;;;;
2022/01/15 06:37:20;;;;;;;12.9;7.2;;;;;;;-1.24;91.74316;947.3272;;;;
2022/01/15 06:39:46;;;;;;;17.2;9.7;;;;;;;-1.28;91.45605;947.3089;;;;
2022/01/15 06:42:11;;;;;;;15.3;8.4;;;;;;;-1.31;91.61426;947.3664;;;;
2022/01/15 06:44:39;;;;;;;14.3;8.1;;;;;;;-1.29;91.73145;947.3784;;;;
2022/01/15 06:47:04;;;;;;;15;9;;;;;;;-1.34;91.95215;947.3434;;;;
2022/01/15 06:49:30;;;;;;;18;10.6;;;;;;;-1.37;92.54395;947.3108;;;;
2022/01/15 06:51:56;;;;;;;19.5;12.7;;;;;;;-1.44;92.25293;947.2941;;;;
2022/01/15 06:54:21;;;;;;;26.1;16.2;;;;;;;-1.57;92.53613;947.355;;;;
2022/01/15 06:56:46;;;;;;;35;22;;;;;;;-1.52;92.35938;947.4231;;;;
2022/01/15 06:59:13;;;;;;;32.9;19.6;;;;;;;-1.59;93.0293;947.4142;;;;
2022/01/15 07:01:38;;;;;;;27.9;16.9;;;;;;;-1.46;93.08105;947.407;;;;
2022/01/15 07:04:07;;;;;;;25.8;15.7;;;;;;;-1.47;92.62402;947.4022;;;;
2022/01/15 07:06:32;;;;;;;25.4;15.3;;;;;;;-1.43;92.06641;947.4144;;;;
2022/01/15 07:08:59;;;;;;;24.4;15.2;;;;;;;-1.45;91.68457;947.4395;;;;
2022/01/15 07:11:24;;;;;;;21;13.2;;;;;;;-1.55;92.18457;947.4653;;;;
2022/01/15 07:13:53;;;;;;;26.7;15.6;;;;;;;-1.54;92.19824;947.4749;;;;
2022/01/15 07:16:18;;;;;;;22.9;13.9;;;;;;;-1.47;92.04492;947.4138;;;;
2022/01/15 07:18:43;;;;;;;22;13.1;;;;;;;-1.4;91.36133;947.4762;;;;
2022/01/15 07:21:12;;;;;;;22.7;13.3;;;;;;;-1.44;91.35352;947.508;;;;
2022/01/15 07:23:36;;;;;;;20;12.7;;;;;;;-1.35;91.26172;947.5031;;;;
2022/01/15 07:26:05;;;;;;;15;9.8;;;;;;;-1.31;91.48145;947.5167;;;;
2022/01/15 07:28:31;;;;;;;17.8;10.6;;;;;;;-1.36;91.77148;947.4867;;;;
2022/01/15 07:31:01;;;;;;;18.5;12.1;;;;;;;-1.36;91.92676;947.4989;;;;
2022/01/15 07:33:30;;;;;;;19.8;13.7;;;;;;;-1.35;91.75098;947.499;;;;
2022/01/15 07:35:56;;;;;;;21.1;13.7;;;;;;;-1.29;91.80859;947.4656;;;;
2022/01/15 07:38:23;;;;;;;28.5;19.4;;;;;;;-1.28;91.86426;947.4951;;;;
2022/01/15 07:40:48;;;;;;;23.7;14.9;;;;;;;-1.27;91.83691;947.4564;;;;
2022/01/15 07:43:15;;;;;;;16.5;11.1;;;;;;;-1.23;91.87793;947.4655;;;;
2022/01/15 07:45:41;;;;;;;23.6;15.1;;;;;;;-1.01;93.21484;947.4592;;;;
2022/01/15 07:48:06;;;;;;;23.9;14.7;;;;;;;-0.38;91.66309;947.4543;;;;
2022/01/15 07:50:32;;;;;;;26.7;16.9;;;;;;;0.1;87.67578;947.4814;;;;
2022/01/15 07:53:00;;;;;;;16.7;11.9;;;;;;;1.01;82.9082;947.4155;;;;
2022/01/15 07:55:25;;;;;;;15.3;10.9;;;;;;;1.78;79.74902;947.3439;;;;
2022/01/15 07:57:54;;;;;;;15.7;10.5;;;;;;;2.76;74.93164;947.3586;;;;
2022/01/15 08:00:19;;;;;;;17.3;11.7;;;;;;;3.44;73.11914;947.3384;;;;
2022/01/15 08:02:46;;;;;;;18;11.8;;;;;;;4.45;68.25;947.3022;;;;
2022/01/15 08:05:11;;;;;;;14.2;8.5;;;;;;;5.34;65.44824;947.2458;;;;
2022/01/15 08:07:37;;;;;;;16.8;10.8;;;;;;;6.16;61.60645;947.242;;;;
2022/01/15 08:10:03;;;;;;;17.2;11.6;;;;;;;6.61;59.2627;947.2757;;;;
2022/01/15 08:12:29;;;;;;;14.5;10;;;;;;;7.4;57.52441;947.2728;;;;
2022/01/15 08:14:56;;;;;;;15.6;11.1;;;;;;;8.1;55.30273;947.26;;;;
2022/01/15 08:17:20;;;;;;;7.3;6;;;;;;;8.83;52.9043;947.1552;;;;
2022/01/15 08:19:47;;;;;;;15.5;10.3;;;;;;;9.14;51.22461;947.1694;;;;
2022/01/15 08:22:12;;;;;;;15.2;10.2;;;;;;;9.88;49.62598;947.1512;;;;
2022/01/15 08:24:39;;;;;;;11.7;8.2;;;;;;;9.3;49.44531;947.1369;;;;
2022/01/15 08:27:04;;;;;;;15.9;10.2;;;;;;;9.34;50.76953;947.1633;;;;
2022/01/15 08:29:30;;;;;;;17.4;12;;;;;;;10.81;46.76172;947.1139;;;;
2022/01/15 08:31:56;;;;;;;16.8;11;;;;;;;11.49;45.69141;947.1369;;;;
2022/01/15 08:34:23;;;;;;;13.9;9.2;;;;;;;12.35;42.82324;947.0735;;;;
2022/01/15 08:36:48;;;;;;;15.7;9.3;;;;;;;11.72;43.33398;947.1249;;;;
2022/01/15 08:39:15;;;;;;;16.1;9.8;;;;;;;11.7;44.35156;947.1086;;;;
2022/01/15 08:41:43;;;;;;;9.3;7.2;;;;;;;12.64;42.48535;947.0828;;;;
2022/01/15 08:44:06;;;;;;;7.5;5.6;;;;;;;12.01;41.74805;947.1237;;;;
2022/01/15 08:46:32;;;;;;;8;4.9;;;;;;;13.31;39.72363;947.0726;;;;
2022/01/15 08:48:58;;;;;;;6.8;4.5;;;;;;;13.04;39.84766;947.0812;;;;
2022/01/15 08:51:24;;;;;;;7.3;4.8;;;;;;;13.24;38.67188;947.0886;;;;
2022/01/15 08:53:49;;;;;;;6;4.7;;;;;;;12.89;38.84766;947.0493;;;;
2022/01/15 08:56:17;;;;;;;7.7;5.3;;;;;;;11.44;41.8877;947.1047;;;;
2022/01/15 08:58:41;;;;;;;8.2;5.8;;;;;;;10.64;43.04199;947.0926;;;;
2022/01/15 09:01:13;;;;;;;10;6.7;;;;;;;9.16;48.07422;947.0953;;;;
2022/01/15 09:03:33;;;;;;;9.6;6.3;;;;;;;8.06;51.23242;947.1348;;;;
2022/01/15 09:05:57;;;;;;;9.1;6.5;;;;;;;6.92;55.44336;947.127;;;;
2022/01/15 09:08:24;;;;;;;9.8;6.8;;;;;;;5.87;59.37402;947.0975;;;;
2022/01/15 09:10:49;;;;;;;10.2;7.3;;;;;;;4.89;63.9502;947.1238;;;;
2022/01/15 09:13:16;;;;;;;11.3;7.6;;;;;;;4.05;67.43359;947.0347;;;;
2022/01/15 09:15:41;;;;;;;10.4;7.1;;;;;;;3.73;69.03516;947.0628;;;;
2022/01/15 09:18:11;;;;;;;9.1;7.2;;;;;;;3.29;71.02734;947.0219;;;;
2022/01/15 09:20:36;;;;;;;13.2;7.9;;;;;;;3.18;72.15527;946.9747;;;;
2022/01/15 09:23:04;;;;;;;5.9;4.1;;;;;;;2.47;79.5625;946.897;;;;
2022/01/15 09:25:29;;;;;;;5.1;3.9;;;;;;;2.02;83.25195;946.8336;;;;
2022/01/15 09:30:22;;;;;;;4.7;3.2;;;;;;;1.86;86.37695;946.7872;;;;
2022/01/15 09:32:47;;;;;;;6.6;4.8;;;;;;;2.02;86.74414;946.7817;;;;
2022/01/15 09:35:15;;;;;;;7.5;4.6;;;;;;;1.99;87.09668;946.7509;;;;
2022/01/15 09:37:40;;;;;;;6.6;4.5;;;;;;;2.05;86.96191;946.6735;;;;
2022/01/15 09:40:12;;;;;;;8.8;5.4;;;;;;;2.13;86.93359;946.6088;;;;
2022/01/15 09:42:38;;;;;;;7.8;4.8;;;;;;;2.24;86.91309;946.6694;;;;
2022/01/15 09:45:03;;;;;;;6.8;4.2;;;;;;;2.39;86.43652;946.678;;;;
2022/01/15 09:47:31;;;;;;;8.5;5.4;;;;;;;2.46;86.00488;946.6305;;;;
2022/01/15 09:49:56;;;;;;;6.9;4.8;;;;;;;2.47;85.71582;946.6647;;;;
2022/01/15 09:52:22;;;;;;;6.8;4.6;;;;;;;2.61;85.50977;946.6213;;;;
2022/01/15 09:54:48;;;;;;;6.1;3.7;;;;;;;2.79;84.5127;946.562;;;;
2022/01/15 09:57:13;;;;;;;6.5;3.9;;;;;;;2.91;84.05566;946.4114;;;;
2022/01/15 09:59:39;;;;;;;6.4;4.3;;;;;;;3.08;83.68359;946.4459;;;;
2022/01/15 10:02:05;;;;;;;5.8;3.6;;;;;;;3.27;82.56641;946.3625;;;;
2022/01/15 10:04:32;;;;;;;5.8;4;;;;;;;3.42;81.95605;946.3317;;;;
2022/01/15 10:06:58;;;;;;;8.1;4.2;;;;;;;3.55;81.51953;946.3655;;;;
2022/01/15 10:09:24;;;;;;;6.3;4.2;;;;;;;3.68;80.24023;946.2554;;;;
2022/01/15 10:11:54;;;;;;;13.7;7;;;;;;;3.82;79.98633;946.1853;;;;
2022/01/15 10:14:26;;;;;;;18.5;11.4;;;;;;;3.93;79.80469;946.1486;;;;
2022/01/15 10:16:59;;;;;;;5.9;4;;;;;;;4.1;83.4248;946.1624;;;;
2022/01/15 10:19:24;;;;;;;2.5;2.2;;;;;;;3.82;80.24316;946.0764;;;;
2022/01/15 10:21:49;;;;;;;4.1;2.6;;;;;;;3.67;81.30664;946.1028;;;;
2022/01/15 10:24:16;;;;;;;3.1;2.2;;;;;;;3.72;80.87793;946.0472;;;;
2022/01/15 10:26:40;;;;;;;4.7;2.7;;;;;;;3.65;80.83105;946.0028;;;;
2022/01/15 10:29:07;;;;;;;5.8;3.2;;;;;;;3.73;80.57715;945.9972;;;;
2022/01/15 10:31:32;;;;;;;6.6;3.5;;;;;;;3.86;80.55566;945.9017;;;;
2022/01/15 10:34:00;;;;;;;5.5;3.5;;;;;;;3.93;80.28809;945.9211;;;;
2022/01/15 10:36:25;;;;;;;4.7;3.2;;;;;;;4.11;80.46875;945.8596;;;;
2022/01/15 10:38:53;;;;;;;3.6;2.1;;;;;;;4.13;79.32422;945.7539;;;;
2022/01/15 10:41:22;;;;;;;3.8;2.2;;;;;;;4.08;78.76367;945.7609;;;;
2022/01/15 10:43:50;;;;;;;3;2;;;;;;;4.2;78.56152;945.6995;;;;
2022/01/15 10:46:15;;;;;;;3.9;2.8;;;;;;;4.29;78.66797;945.6769;;;;
2022/01/15 10:48:40;;;;;;;2.8;2.2;;;;;;;4.49;77.92871;945.6411;;;;
2022/01/15 10:51:10;;;;;;;2.7;1.8;;;;;;;4.64;76.97656;945.5922;;;;
2022/01/15 10:53:34;;;;;;;2.4;1.8;;;;;;;4.77;76.40234;945.5101;;;;
2022/01/15 10:56:01;;;;;;;2.6;1.6;;;;;;;4.81;75.92383;945.4694;;;;
2022/01/15 10:58:25;;;;;;;3;2.2;;;;;;;5.18;73.84766;945.4504;;;;
2022/01/15 11:00:53;;;;;;;4.1;2.5;;;;;;;5.34;74.71973;945.4123;;;;
2022/01/15 11:03:18;;;;;;;3.9;2.5;;;;;;;5.5;73.49805;945.3725;;;;
2022/01/15 11:05:43;;;;;;;4;2.4;;;;;;;5.61;73.19043;945.4191;;;;
2022/01/15 11:08:11;;;;;;;3.9;2.4;;;;;;;5.7;71.75781;945.322;;;;
2022/01/15 11:10:37;;;;;;;3.4;2.4;;;;;;;5.82;72.25293;945.3292;;;;
2022/01/15 11:13:06;;;;;;;4.4;3.1;;;;;;;5.91;70.41602;945.303;;;;
2022/01/15 11:15:27;;;;;;;4.2;2.7;;;;;;;6.09;70.02734;945.2477;;;;
2022/01/15 11:17:52;;;;;;;4.2;2.9;;;;;;;6.02;70.75195;945.1835;;;;
2022/01/15 11:20:23;;;;;;;4.9;3.1;;;;;;;6.24;68.96777;945.1548;;;;
2022/01/15 11:22:53;;;;;;;3.3;2.3;;;;;;;6.37;68.03906;945.0322;;;;
2022/01/15 11:25:18;;;;;;;3.4;2.2;;;;;;;6.47;67.33105;945.108;;;;
2022/01/15 11:27:45;;;;;;;3.3;2.3;;;;;;;6.53;66.95508;945.1387;;;;
2022/01/15 11:30:12;;;;;;;3.7;2.4;;;;;;;6.58;65.43652;944.9449;;;;
2022/01/15 11:32:38;;;;;;;3.7;2.5;;;;;;;6.68;66.07227;944.9945;;;;
2022/01/15 11:35:04;;;;;;;5.5;2.8;;;;;;;6.75;66.24219;944.9646;;;;
2022/01/15 11:37:30;;;;;;;6.5;4.3;;;;;;;6.84;66.1543;944.9554;;;;
2022/01/15 11:39:56;;;;;;;5.1;3;;;;;;;6.93;66.00977;944.8901;;;;
2022/01/15 11:42:20;;;;;;;5.9;4;;;;;;;7.05;65.23535;944.8803;;;;
2022/01/15 11:44:46;;;;;;;5;2.5;;;;;;;6.97;66.92285;944.8861;;;;
2022/01/15 11:47:11;;;;;;;5.1;3.8;;;;;;;6.84;67.63672;944.8889;;;;
2022/01/15 11:49:36;;;;;;;6.3;4.3;;;;;;;6.61;68.80078;944.8679;;;;
2022/01/15 11:52:04;;;;;;;5.8;4.6;;;;;;;6.23;69.65527;944.8506;;;;
2022/01/15 11:54:33;;;;;;;6.2;4.5;;;;;;;6.12;70.80176;944.8836;;;;
2022/01/15 11:56:58;;;;;;;8.3;5.6;;;;;;;6.01;71.13477;944.818;;;;
2022/01/15 11:59:27;;;;;;;7.4;5.4;;;;;;;5.87;72.05859;944.812;;;;
2022/01/15 12:01:55;;;;;;;8.8;5.7;;;;;;;5.71;72.43652;944.8158;;;;
2022/01/15 12:04:20;;;;;;;7.7;5;;;;;;;5.6;72.44043;944.8383;;;;
2022/01/15 12:06:48;;;;;;;7.7;5.3;;;;;;;5.57;72.83105;944.7733;;;;
2022/01/15 12:09:15;;;;;;;7.3;5.4;;;;;;;5.6;72.69043;944.8274;;;;
2022/01/15 12:11:43;;;;;;;7.8;5.3;;;;;;;5.62;72.99902;944.7874;;;;
2022/01/15 12:14:07;;;;;;;7.1;5.2;;;;;;;5.43;74.07227;944.8103;;;;
2022/01/15 12:16:41;;;;;;;7.4;5.4;;;;;;;5.53;73.78418;944.7281;;;;
2022/01/15 12:19:00;;;;;;;7.6;5.3;;;;;;;5.45;73.62207;944.7834;;;;
2022/01/15 12:21:25;;;;;;;7.2;5.7;;;;;;;5.64;73.00195;944.7239;;;;
2022/01/15 12:23:54;;;;;;;6.6;5.3;;;;;;;5.54;72.63477;944.7389;;;;
2022/01/15 12:26:19;;;;;;;6.5;4.9;;;;;;;5.59;73.06152;944.7029;;;;
2022/01/15 12:28:47;;;;;;;6;4.4;;;;;;;5.55;72.81543;944.6426;;;;
2022/01/15 12:31:12;;;;;;;5.9;4.3;;;;;;;5.8;72.4873;944.6061;;;;
2022/01/15 12:33:39;;;;;;;4.6;3.9;;;;;;;5.92;70.90332;944.6079;;;;
2022/01/15 12:36:04;;;;;;;5.7;4.1;;;;;;;5.72;71.875;944.5477;;;;
2022/01/15 12:38:30;;;;;;;6.3;4;;;;;;;5.61;71.62109;944.5232;;;;
2022/01/15 12:40:55;;;;;;;4.7;4;;;;;;;5.56;72.01855;944.4973;;;;
2022/01/15 12:43:24;;;;;;;5.9;4.4;;;;;;;5.64;72.87793;944.4745;;;;
2022/01/15 12:45:49;;;;;;;6.1;4;;;;;;;5.82;71.99316;944.437;;;;
2022/01/15 12:48:16;;;;;;;4.6;3.9;;;;;;;5.86;71.68457;944.4191;;;;
2022/01/15 12:50:41;;;;;;;5.6;4.2;;;;;;;6.05;71.81641;944.3908;;;;
2022/01/15 12:53:06;;;;;;;5.4;4.2;;;;;;;6.17;71.10156;944.3444;;;;
2022/01/15 12:55:31;;;;;;;5.6;4.4;;;;;;;5.92;71.76172;944.3725;;;;
2022/01/15 12:57:59;;;;;;;7.2;4.9;;;;;;;5.65;72.94629;944.222;;;;
2022/01/15 13:00:24;;;;;;;5.5;4.5;;;;;;;5.99;72.95996;944.1884;;;;
2022/01/15 13:02:49;;;;;;;6.3;4.6;;;;;;;6.25;72.43945;944.2117;;;;
2022/01/15 13:05:17;;;;;;;6.5;4.8;;;;;;;6.29;71.75488;944.1867;;;;
2022/01/15 13:07:43;;;;;;;7;4.8;;;;;;;6.01;72.38574;944.1447;;;;
2022/01/15 13:10:11;;;;;;;6.6;4.5;;;;;;;5.88;73.12109;944.0623;;;;
2022/01/15 13:12:37;;;;;;;7.1;5.1;;;;;;;6.08;73.26953;944.011;;;;
2022/01/15 13:15:05;;;;;;;7;5.1;;;;;;;6.35;72.19629;944.0664;;;;
2022/01/15 13:17:38;;;;;;;7.9;5.3;;;;;;;6.49;72.18652;944.0692;;;;
2022/01/15 13:20:06;;;;;;;6.4;4.7;;;;;;;6.67;71.31152;944.0385;;;;
2022/01/15 13:22:31;;;;;;;7.5;5.7;;;;;;;6.69;71.30176;943.9661;;;;
2022/01/15 13:25:05;;;;;;;7.2;5.5;;;;;;;6.9;70.58887;943.9597;;;;
2022/01/15 13:27:28;;;;;;;7.2;5.6;;;;;;;6.77;71.05566;943.9482;;;;
2022/01/15 13:29:53;;;;;;;8.8;5.8;;;;;;;6.88;70.90332;943.9108;;;;
2022/01/15 13:32:19;;;;;;;8.7;6.5;;;;;;;6.99;70.99023;943.8755;;;;
2022/01/15 13:34:48;;;;;;;9.9;6.7;;;;;;;7.08;71.0625;943.9311;;;;
2022/01/15 13:37:10;;;;;;;8.3;6.8;;;;;;;7.16;70.38477;943.9637;;;;
2022/01/15 13:39:35;;;;;;;10.2;6.9;;;;;;;7;69.82617;943.9045;;;;
2022/01/15 13:42:03;;;;;;;8.9;7;;;;;;;7.15;70.7002;943.927;;;;
2022/01/15 13:44:28;;;;;;;9.8;6.9;;;;;;;7.22;69.19238;943.9144;;;;
2022/01/15 13:46:54;;;;;;;8.6;6.5;;;;;;;7.43;69.16895;943.9938;;;;
2022/01/15 13:49:19;;;;;;;9.3;6.7;;;;;;;7.46;68.08594;943.9487;;;;
2022/01/15 13:54:09;;;;;;;10.4;6.5;;;;;;;7.6;68.12012;943.9736;;;;
2022/01/15 13:56:36;;;;;;;8.5;6.7;;;;;;;8.28;66.51367;943.9353;;;;
2022/01/15 13:59:01;;;;;;;10.8;7.1;;;;;;;8.86;63.67871;944.0467;;;;
2022/01/15 14:01:30;;;;;;;8.9;6.6;;;;;;;10.47;59.33984;943.9169;;;;
2022/01/15 14:03:55;;;;;;;7.6;6.1;;;;;;;12.27;53.00586;943.925;;;;
2022/01/15 14:06:20;;;;;;;9.7;6.3;;;;;;;14.49;47.05566;943.8611;;;;
2022/01/15 14:08:46;;;;;;;8;5.7;;;;;;;16.63;41.45117;943.8862;;;;
2022/01/15 14:11:13;;;;;;;7.1;5.4;;;;;;;18.14;38.57324;943.8965;;;;
2022/01/15 14:13:38;;;;;;;6.3;5.2;;;;;;;19.05;36.1377;943.9097;;;;
2022/01/15 14:16:06;;;;;;;8.9;6.5;;;;;;;19.84;34.72168;943.8649;;;;
2022/01/15 14:18:34;;;;;;;8;5.8;;;;;;;20.39;33.35156;943.827;;;;
2022/01/15 14:21:17;;;;;;;6.7;4.9;;;;;;;20.3;33.42676;943.8303;;;;
2022/01/15 14:23:30;;;;;;;7.2;5.2;;;;;;;18.58;35.29688;943.8147;;;;
2022/01/15 14:25:55;;;;;;;7.8;5.8;;;;;;;17.22;37.79688;943.9009;;;;
2022/01/15 14:28:23;;;;;;;8.7;6.5;;;;;;;15.49;42.09375;943.8552;;;;
2022/01/15 14:30:46;;;;;;;6.4;5.3;;;;;;;14.96;44.0625;943.8011;;;;
2022/01/15 14:33:14;;;;;;;6.8;5.3;;;;;;;16.38;40.96387;943.755;;;;